createdAt,value
2019-01-08T00:01:32.904Z,99.18
2019-01-08T00:04:02.201Z,99.40
2019-01-08T00:06:31.249Z,98.69
2019-01-08T00:09:00.294Z,98.47
2019-01-08T00:11:29.354Z,98.34
2019-01-08T00:13:59.436Z,98.33
2019-01-08T00:16:28.559Z,97.35
2019-01-08T00:18:58.394Z,97.49
2019-01-08T00:21:27.627Z,97.95
2019-01-08T00:23:56.670Z,97.20
2019-01-08T00:29:04.409Z,97.31
2019-01-08T00:31:34.461Z,98.27
2019-01-08T00:34:03.511Z,98.18
2019-01-08T00:39:07.773Z,98.23
2019-01-08T00:41:36.856Z,99.44
2019-01-08T00:44:05.956Z,98.75
2019-01-08T00:49:10.263Z,99.15
2019-01-08T00:51:39.298Z,99.17
2019-01-08T00:54:08.359Z,99.75
2019-01-08T00:56:37.459Z,98.75
2019-01-08T00:59:06.497Z,99.50
2019-01-08T01:01:35.546Z,100.00
2019-01-08T01:04:04.583Z,100.00
2019-01-08T01:06:33.640Z,100.00
2019-01-08T01:09:02.771Z,100.00
2019-01-08T01:11:31.831Z,100.00
2019-01-08T01:14:00.903Z,100.00
2019-01-08T01:16:29.961Z,100.00
2019-01-08T01:18:59.047Z,100.00
2019-01-08T01:21:28.099Z,100.00
2019-01-08T01:23:57.175Z,100.00
2019-01-08T01:26:26.218Z,100.00
2019-01-08T01:29:00.035Z,100.00
2019-01-08T01:31:24.408Z,100.00
2019-01-08T01:36:33.181Z,100.00
2019-01-08T01:39:02.350Z,100.00
2019-01-08T01:41:31.419Z,100.00
2019-01-08T01:44:01.509Z,100.00
2019-01-08T01:46:30.603Z,100.00
2019-01-08T01:49:09.016Z,100.00
2019-01-08T01:51:39.862Z,100.00
2019-01-08T01:54:08.899Z,100.00
2019-01-08T01:56:37.958Z,100.00
2019-01-08T01:59:08.589Z,100.00
2019-01-08T02:01:36.047Z,100.00
2019-01-08T02:04:05.109Z,100.00
2019-01-08T02:06:35.175Z,100.00
2019-01-08T02:09:05.234Z,100.00
2019-01-08T02:11:34.299Z,100.00
2019-01-08T02:14:03.408Z,100.00
2019-01-08T02:16:33.472Z,100.00
2019-01-08T02:19:02.501Z,100.00
2019-01-08T02:21:31.563Z,100.00
2019-01-08T02:24:00.624Z,100.00
2019-01-08T02:26:29.690Z,100.00
2019-01-08T02:28:58.749Z,100.00
2019-01-08T02:31:40.047Z,100.00
2019-01-08T02:34:09.083Z,100.00
2019-01-08T02:36:38.150Z,100.00
2019-01-08T02:41:44.006Z,100.00
2019-01-08T02:44:13.107Z,100.00
2019-01-08T02:46:42.308Z,100.00
2019-01-08T02:49:11.195Z,100.00
2019-01-08T02:51:40.290Z,100.00
2019-01-08T02:54:09.348Z,100.00
2019-01-08T02:56:38.417Z,100.00
2019-01-08T02:59:07.478Z,100.00
2019-01-08T03:01:36.576Z,100.00
2019-01-08T03:04:06.583Z,100.00
2019-01-08T03:06:35.640Z,100.00
2019-01-08T03:09:04.730Z,100.00
2019-01-08T03:14:08.805Z,100.00
2019-01-08T03:16:37.872Z,100.00
2019-01-08T03:19:06.966Z,100.00
2019-01-08T03:21:36.038Z,100.00
2019-01-08T03:24:05.103Z,100.00
2019-01-08T03:26:34.157Z,100.00
2019-01-08T03:29:03.224Z,100.00
2019-01-08T03:31:32.270Z,100.00
2019-01-08T03:36:40.071Z,100.00
2019-01-08T03:39:14.988Z,100.00
2019-01-08T03:41:44.572Z,100.00
2019-01-08T03:44:13.616Z,100.00
2019-01-08T03:46:42.699Z,100.00
2019-01-08T03:49:11.783Z,100.00
2019-01-08T03:51:40.829Z,100.00
2019-01-08T03:54:09.872Z,100.00
2019-01-08T03:56:38.955Z,100.00
2019-01-08T03:59:08.904Z,100.00
2019-01-08T04:01:38.895Z,100.00
2019-01-08T04:04:07.947Z,100.00
2019-01-08T04:06:36.998Z,100.00
2019-01-08T04:09:06.063Z,100.00
2019-01-08T04:14:10.880Z,100.00
2019-01-08T04:16:39.961Z,100.00
2019-01-08T04:19:09.015Z,100.00
2019-01-08T04:24:16.809Z,100.00
2019-01-08T04:26:45.900Z,100.00
2019-01-08T04:29:14.958Z,100.00
2019-01-08T04:31:44.063Z,100.00
2019-01-08T04:34:13.141Z,100.00
2019-01-08T04:36:42.211Z,100.00
2019-01-08T04:39:11.249Z,100.00
2019-01-08T04:41:40.320Z,100.00
2019-01-08T04:44:14.194Z,100.00
2019-01-08T04:46:43.242Z,100.00
2019-01-08T04:49:12.312Z,100.00
2019-01-08T04:51:41.353Z,100.00
2019-01-08T04:54:10.446Z,100.00
2019-01-08T04:56:40.463Z,100.00
2019-01-08T04:59:09.551Z,100.00
2019-01-08T05:01:38.611Z,100.00
2019-01-08T05:04:07.655Z,100.00
2019-01-08T05:06:36.713Z,100.00
2019-01-08T05:09:05.798Z,100.00
2019-01-08T05:11:34.882Z,100.00
2019-01-08T05:14:03.950Z,100.00
2019-01-08T05:16:33.007Z,100.00
2019-01-08T05:19:02.136Z,100.00
2019-01-08T05:21:36.519Z,100.00
2019-01-08T05:24:05.567Z,100.00
2019-01-08T05:26:34.623Z,100.00
2019-01-08T05:29:04.639Z,100.00
2019-01-08T05:31:33.658Z,100.00
2019-01-08T05:34:02.827Z,100.00
2019-01-08T05:36:31.934Z,100.00
2019-01-08T05:39:00.971Z,100.00
2019-01-08T05:41:30.031Z,100.00
2019-01-08T05:43:59.083Z,100.00
2019-01-08T05:48:59.101Z,100.00
2019-01-08T05:51:28.287Z,100.00
2019-01-08T05:56:52.133Z,100.00
2019-01-08T05:59:22.670Z,100.00
2019-01-08T06:01:52.622Z,100.00
2019-01-08T06:04:30.581Z,100.00
2019-01-08T06:06:59.615Z,100.00
2019-01-08T06:09:29.018Z,100.00
2019-01-08T06:11:58.098Z,100.00
2019-01-08T06:14:27.253Z,100.00
2019-01-08T06:16:57.314Z,100.00
2019-01-08T06:19:26.361Z,100.00
2019-01-08T06:21:56.826Z,100.00
2019-01-08T06:27:03.005Z,100.00
2019-01-08T06:29:32.093Z,100.00
2019-01-08T06:32:10.491Z,100.00
2019-01-08T06:34:39.838Z,100.00
2019-01-08T06:37:08.893Z,100.00
2019-01-08T06:39:37.930Z,100.00
2019-01-08T06:42:06.976Z,100.00
2019-01-08T06:44:41.859Z,100.00
2019-01-08T06:47:10.922Z,100.00
2019-01-08T06:49:40.000Z,100.00
2019-01-08T06:52:13.821Z,100.00
2019-01-08T06:57:18.610Z,100.00
2019-01-08T06:59:47.678Z,100.00
2019-01-08T07:02:16.712Z,100.00
2019-01-08T07:04:45.767Z,100.00
2019-01-08T07:07:14.827Z,100.00
2019-01-08T07:09:43.873Z,100.00
2019-01-08T07:12:12.906Z,100.00
2019-01-08T07:14:41.950Z,100.00
2019-01-08T07:19:46.691Z,100.00
2019-01-08T07:22:15.760Z,100.00
2019-01-08T07:24:44.806Z,100.00
2019-01-08T07:27:16.645Z,100.00
2019-01-08T07:29:42.950Z,100.00
2019-01-08T07:32:12.025Z,100.00
2019-01-08T07:34:41.069Z,100.00
2019-01-08T07:37:10.117Z,100.00
2019-01-08T07:39:39.186Z,100.00
2019-01-08T07:42:08.292Z,100.00
2019-01-08T07:44:37.483Z,100.00
2019-01-08T07:47:06.517Z,100.00
2019-01-08T07:49:35.569Z,100.00
2019-01-08T07:52:05.618Z,100.00
2019-01-08T07:54:35.889Z,100.00
2019-01-08T07:57:03.718Z,100.00
2019-01-08T07:59:33.746Z,100.00
2019-01-08T08:02:02.791Z,100.00
2019-01-08T08:04:31.878Z,100.00
2019-01-08T08:07:02.260Z,100.00
2019-01-08T08:09:31.370Z,100.00
2019-01-08T08:12:00.437Z,100.00
2019-01-08T08:14:29.469Z,100.00
2019-01-08T08:16:58.515Z,100.00
2019-01-08T08:19:27.580Z,100.00
2019-01-08T08:21:56.641Z,100.00
2019-01-08T08:24:25.689Z,100.00
2019-01-08T08:29:30.550Z,100.00
2019-01-08T08:31:59.596Z,100.00
2019-01-08T08:34:28.627Z,100.00
2019-01-08T08:36:57.667Z,100.00
2019-01-08T08:42:01.774Z,100.00
2019-01-08T08:47:10.136Z,100.00
2019-01-08T08:52:14.895Z,100.00
2019-01-08T08:54:43.948Z,100.00
2019-01-08T08:57:13.988Z,100.00
2019-01-08T08:59:44.212Z,100.00
2019-01-08T09:02:13.320Z,100.00
2019-01-08T09:04:42.371Z,100.00
2019-01-08T09:07:13.149Z,100.00
2019-01-08T09:09:43.187Z,100.00
2019-01-08T09:12:12.237Z,100.00
2019-01-08T09:14:41.272Z,100.00
2019-01-08T09:17:10.343Z,100.00
2019-01-08T09:19:39.397Z,100.00
2019-01-08T09:22:08.447Z,100.00
2019-01-08T09:24:37.522Z,100.00
2019-01-08T09:27:06.587Z,100.00
2019-01-08T09:29:47.024Z,100.00
2019-01-08T09:32:16.283Z,100.00
2019-01-08T09:34:45.338Z,100.00
2019-01-08T09:37:14.382Z,100.00
2019-01-08T09:39:43.435Z,100.00
2019-01-08T09:42:12.492Z,100.00
2019-01-08T09:44:41.539Z,100.00
2019-01-08T09:47:10.710Z,100.00
2019-01-08T09:49:40.765Z,100.00
2019-01-08T09:52:09.838Z,100.00
2019-01-08T09:54:38.926Z,100.00
2019-01-08T09:57:10.386Z,100.00
2019-01-08T09:59:39.537Z,100.00
2019-01-08T10:04:44.351Z,100.00
2019-01-08T10:09:24.981Z,100.00
2019-01-08T10:11:56.602Z,100.00
2019-01-08T10:14:26.119Z,100.00
2019-01-08T10:16:55.167Z,100.00
2019-01-08T10:19:24.221Z,100.00
2019-01-08T10:21:53.668Z,100.00
2019-01-08T10:27:00.328Z,99.43
2019-01-08T10:29:29.556Z,99.07
2019-01-08T10:34:43.305Z,99.30
2019-01-08T10:37:14.170Z,100.00
2019-01-08T10:39:44.257Z,99.69
2019-01-08T10:42:13.319Z,99.67
2019-01-08T10:44:42.351Z,99.82
2019-01-08T10:49:50.092Z,100.00
2019-01-08T10:52:19.160Z,100.00
2019-01-08T10:54:48.258Z,100.00
2019-01-08T10:57:17.315Z,100.00
2019-01-08T11:02:22.112Z,100.00
2019-01-08T11:04:51.154Z,100.00
2019-01-08T11:07:21.109Z,100.00
2019-01-08T11:09:50.698Z,100.00
2019-01-08T11:12:20.016Z,100.00
2019-01-08T11:14:49.171Z,100.00
2019-01-08T11:17:18.829Z,100.00
2019-01-08T11:19:47.947Z,100.00
2019-01-08T11:22:17.001Z,100.00
2019-01-08T11:24:46.549Z,100.00
2019-01-08T11:27:17.388Z,100.00
2019-01-08T11:29:47.166Z,100.00
2019-01-08T11:34:56.074Z,100.00
2019-01-08T11:37:25.046Z,99.13
2019-01-08T11:39:54.094Z,99.37
2019-01-08T11:42:23.974Z,99.44
2019-01-08T11:44:53.062Z,99.28
2019-01-08T11:47:22.131Z,100.00
2019-01-08T11:49:51.179Z,100.00
2019-01-08T11:52:20.226Z,100.00
2019-01-08T11:54:49.267Z,100.00
2019-01-08T11:57:18.318Z,100.00
2019-01-08T11:59:48.333Z,100.00
2019-01-08T12:02:16.408Z,100.00
2019-01-08T12:04:45.455Z,99.08
2019-01-08T12:07:14.490Z,96.63
2019-01-08T12:12:19.237Z,97.98
2019-01-08T12:14:50.169Z,97.49
2019-01-08T12:17:19.198Z,95.67
2019-01-08T12:19:49.260Z,95.50
2019-01-08T12:22:18.315Z,94.57
2019-01-08T12:24:47.347Z,92.79
2019-01-08T12:27:16.423Z,90.71
2019-01-08T12:29:45.453Z,90.62
2019-01-08T12:32:15.493Z,90.51
2019-01-08T12:34:44.523Z,89.33
2019-01-08T12:37:13.566Z,89.76
2019-01-08T12:39:42.616Z,90.71
2019-01-08T12:42:11.727Z,90.12
2019-01-08T12:44:40.802Z,87.99
2019-01-08T12:47:09.842Z,86.43
2019-01-08T12:52:15.732Z,88.32
2019-01-08T12:54:44.756Z,89.20
2019-01-08T12:57:13.812Z,88.63
2019-01-08T12:59:42.878Z,89.01
2019-01-08T13:02:14.826Z,90.24
2019-01-08T13:04:43.996Z,90.46
2019-01-08T13:07:13.495Z,90.60
2019-01-08T13:09:42.524Z,87.55
2019-01-08T13:12:11.583Z,83.94
2019-01-08T13:14:40.628Z,83.46
2019-01-08T13:17:11.620Z,81.75
2019-01-08T13:22:15.301Z,80.69
2019-01-08T13:24:48.799Z,78.94
2019-01-08T13:27:17.832Z,81.40
2019-01-08T13:29:47.777Z,83.47
2019-01-08T13:32:23.073Z,84.14
2019-01-08T13:34:45.898Z,84.41
2019-01-08T13:37:14.955Z,84.57
2019-01-08T13:39:44.023Z,84.95
2019-01-08T13:42:13.321Z,84.86
2019-01-08T13:44:42.374Z,85.50
2019-01-08T13:49:46.912Z,85.16
2019-01-08T13:52:16.128Z,85.28
2019-01-08T13:54:45.290Z,86.39
2019-01-08T13:59:50.078Z,86.96
2019-01-08T14:02:19.283Z,86.58
2019-01-08T14:04:48.378Z,88.37
2019-01-08T14:07:26.552Z,88.87
2019-01-08T14:09:56.257Z,87.59
2019-01-08T14:12:25.327Z,89.12
2019-01-08T14:14:54.382Z,88.76
2019-01-08T14:17:23.419Z,87.92
2019-01-08T14:19:52.479Z,87.99
2019-01-08T14:22:21.513Z,86.66
2019-01-08T14:24:51.542Z,86.76
2019-01-08T14:27:20.622Z,86.87
2019-01-08T14:29:49.696Z,88.39
2019-01-08T14:32:18.783Z,88.91
2019-01-08T14:34:47.841Z,87.67
2019-01-08T14:37:18.196Z,87.54
2019-01-08T14:39:47.371Z,87.74
2019-01-08T14:42:16.411Z,88.18
2019-01-08T14:44:45.452Z,89.21
2019-01-08T14:47:14.551Z,88.63
2019-01-08T14:49:43.666Z,88.97
2019-01-08T14:52:12.862Z,88.80
2019-01-08T14:54:42.077Z,89.57
2019-01-08T14:57:11.092Z,89.50
2019-01-08T14:59:40.173Z,89.95
2019-01-08T15:02:09.250Z,90.16
2019-01-08T15:04:38.346Z,90.17
2019-01-08T15:07:07.553Z,90.47
2019-01-08T15:09:36.602Z,90.98
2019-01-08T15:12:05.671Z,90.47
2019-01-08T15:14:40.035Z,91.07
2019-01-08T15:17:09.059Z,90.30
2019-01-08T15:19:38.195Z,91.05
2019-01-08T15:22:07.299Z,91.83
2019-01-08T15:24:36.335Z,92.16
2019-01-08T15:27:05.414Z,92.74
2019-01-08T15:29:34.560Z,93.20
2019-01-08T15:32:11.373Z,93.85
2019-01-08T15:34:40.751Z,93.39
2019-01-08T15:37:09.842Z,94.33
2019-01-08T15:39:39.255Z,94.41
2019-01-08T15:42:08.275Z,93.72
2019-01-08T15:44:37.493Z,93.71
2019-01-08T15:49:43.491Z,93.16
2019-01-08T15:52:12.580Z,92.94
2019-01-08T15:57:17.353Z,93.20
2019-01-08T15:59:46.572Z,93.08
2019-01-08T16:02:15.674Z,92.28
2019-01-08T16:04:44.732Z,93.19
2019-01-08T16:07:14.750Z,92.95
2019-01-08T16:12:20.491Z,94.24
2019-01-08T16:14:49.570Z,93.60
2019-01-08T16:19:54.342Z,92.75
2019-01-08T16:22:24.456Z,92.37
2019-01-08T16:24:54.426Z,92.35
2019-01-08T16:30:00.769Z,93.15
2019-01-08T16:32:29.872Z,92.39
2019-01-08T16:34:58.927Z,92.49
2019-01-08T16:37:27.963Z,92.13
2019-01-08T16:39:57.041Z,91.11
2019-01-08T16:42:26.115Z,90.88
2019-01-08T16:44:56.115Z,90.02
2019-01-08T16:47:25.223Z,90.87
2019-01-08T16:49:55.197Z,90.37
2019-01-08T16:52:24.270Z,91.62
2019-01-08T16:54:53.345Z,92.55
2019-01-08T16:57:22.889Z,93.23
2019-01-08T16:59:51.945Z,93.58
2019-01-08T17:02:21.029Z,93.93
2019-01-08T17:04:50.077Z,95.13
2019-01-08T17:07:19.189Z,95.46
2019-01-08T17:09:48.251Z,95.15
2019-01-08T17:12:18.252Z,94.41
2019-01-08T17:14:55.337Z,94.44
2019-01-08T17:17:24.902Z,94.28
2019-01-08T17:19:54.799Z,94.36
2019-01-08T17:22:23.853Z,96.65
2019-01-08T17:24:52.903Z,97.87
2019-01-08T17:27:22.015Z,98.62
2019-01-08T17:29:51.046Z,99.20
2019-01-08T17:32:20.424Z,99.91
2019-01-08T17:34:49.508Z,100.00
2019-01-08T17:37:20.468Z,100.00
2019-01-08T17:39:49.544Z,100.00
2019-01-08T17:42:18.605Z,100.00
2019-01-08T17:44:47.646Z,100.00
2019-01-08T17:47:18.539Z,100.00
2019-01-08T17:49:47.619Z,100.00
2019-01-08T17:52:16.678Z,100.00
2019-01-08T17:54:45.731Z,100.00
2019-01-08T17:57:14.783Z,100.00
2019-01-08T17:59:43.844Z,100.00
2019-01-08T18:02:12.969Z,100.00
2019-01-08T18:04:41.931Z,100.00
2019-01-08T18:07:10.983Z,100.00
2019-01-08T18:09:40.052Z,100.00
2019-01-08T18:12:09.122Z,100.00
2019-01-08T18:14:38.160Z,100.00
2019-01-08T18:17:07.192Z,100.00
2019-01-08T18:19:38.251Z,100.00
2019-01-08T18:22:08.056Z,100.00
2019-01-08T18:24:37.188Z,100.00
2019-01-08T18:27:06.245Z,100.00
2019-01-08T18:29:35.296Z,100.00
2019-01-08T18:32:04.342Z,100.00
2019-01-08T18:34:33.528Z,100.00
2019-01-08T18:37:03.893Z,100.00
2019-01-08T18:39:31.662Z,100.00
2019-01-08T18:42:01.037Z,100.00
2019-01-08T18:44:39.263Z,100.00
2019-01-08T18:47:08.320Z,100.00
2019-01-08T18:49:37.383Z,100.00
2019-01-08T18:52:06.507Z,100.00
2019-01-08T18:54:35.615Z,100.00
2019-01-08T18:57:04.704Z,100.00
2019-01-08T18:59:34.697Z,100.00
2019-01-08T19:02:03.759Z,100.00
2019-01-08T19:04:32.891Z,100.00
2019-01-08T19:07:01.960Z,100.00
2019-01-08T19:09:31.016Z,100.00
2019-01-08T19:12:01.024Z,100.00
2019-01-08T19:14:30.863Z,100.00
2019-01-08T19:16:59.924Z,100.00
2019-01-08T19:19:29.004Z,100.00
2019-01-08T19:24:33.872Z,100.00
2019-01-08T19:27:03.912Z,100.00
2019-01-08T19:29:34.895Z,100.00
2019-01-08T19:32:04.894Z,100.00
2019-01-08T19:34:34.000Z,100.00
2019-01-08T19:37:03.180Z,100.00
2019-01-08T19:39:32.235Z,100.00
2019-01-08T19:42:01.291Z,100.00
2019-01-08T19:44:31.391Z,100.00
2019-01-08T19:47:01.413Z,99.20
2019-01-08T19:49:30.567Z,98.55
2019-01-08T19:52:01.579Z,98.73
2019-01-08T19:54:31.835Z,98.27
2019-01-08T19:57:10.202Z,97.96
2019-01-08T19:59:39.952Z,98.91
2019-01-08T20:02:09.021Z,98.80
2019-01-08T20:04:38.078Z,98.75
2019-01-08T20:07:07.249Z,98.82
2019-01-08T20:09:36.344Z,98.07
2019-01-08T20:12:05.469Z,98.40
2019-01-08T20:14:34.544Z,97.85
2019-01-08T20:17:03.583Z,97.82
2019-01-08T20:19:38.141Z,97.53
2019-01-08T20:22:07.191Z,96.71
2019-01-08T20:24:36.231Z,96.17
2019-01-08T20:27:05.286Z,97.27
2019-01-08T20:29:34.349Z,97.24
2019-01-08T20:32:04.404Z,98.12
2019-01-08T20:34:33.474Z,98.83
2019-01-08T20:37:03.712Z,98.63
2019-01-08T20:39:33.708Z,97.41
2019-01-08T20:42:02.974Z,97.68
2019-01-08T20:44:32.006Z,98.24
2019-01-08T20:47:01.158Z,97.60
2019-01-08T20:49:30.779Z,98.19
2019-01-08T20:54:36.095Z,100.00
2019-01-08T20:57:18.361Z,100.00
2019-01-08T20:59:57.255Z,100.00
2019-01-08T21:02:29.378Z,100.00
2019-01-08T21:05:01.730Z,100.00
2019-01-08T21:07:31.054Z,100.00
2019-01-08T21:10:00.297Z,100.00
2019-01-08T21:12:34.178Z,100.00
2019-01-08T21:15:03.224Z,100.00
2019-01-08T21:17:32.308Z,100.00
2019-01-08T21:20:02.946Z,100.00
2019-01-08T21:22:33.058Z,100.00
2019-01-08T21:25:02.155Z,100.00
2019-01-08T21:27:31.203Z,100.00
2019-01-08T21:30:00.330Z,100.00
2019-01-08T21:32:29.440Z,100.00
2019-01-08T21:34:58.534Z,100.00
2019-01-08T21:37:27.652Z,100.00
2019-01-08T21:39:57.961Z,100.00
2019-01-08T21:42:27.140Z,100.00
2019-01-08T21:44:56.157Z,100.00
2019-01-08T21:47:26.166Z,100.00
2019-01-08T21:49:55.225Z,100.00
2019-01-08T21:52:24.278Z,100.00
2019-01-08T21:54:53.371Z,100.00
2019-01-08T21:57:24.495Z,100.00
2019-01-08T21:59:53.647Z,100.00
2019-01-08T22:02:22.711Z,100.00
2019-01-08T22:04:53.205Z,100.00
2019-01-08T22:07:20.895Z,100.00
2019-01-08T22:09:50.259Z,100.00
2019-01-08T22:12:19.324Z,100.00
2019-01-08T22:14:51.539Z,100.00
2019-01-08T22:17:21.491Z,100.00
2019-01-08T22:19:51.522Z,100.00
2019-01-08T22:22:29.081Z,100.00
2019-01-08T22:24:58.735Z,100.00
2019-01-08T22:27:28.108Z,100.00
2019-01-08T22:32:33.906Z,100.00
2019-01-08T22:35:06.358Z,100.00
2019-01-08T22:37:35.420Z,100.00
2019-01-08T22:40:04.476Z,100.00
2019-01-08T22:46:05.241Z,100.00
2019-01-08T22:48:34.399Z,100.00
2019-01-08T22:51:04.425Z,100.00
2019-01-08T22:53:33.513Z,100.00
2019-01-08T22:56:02.614Z,100.00
2019-01-08T22:58:31.753Z,99.02
2019-01-08T23:01:10.756Z,98.65
2019-01-08T23:03:39.840Z,98.46
2019-01-08T23:06:08.927Z,97.95
2019-01-08T23:08:37.941Z,98.18
2019-01-08T23:11:07.025Z,96.70
2019-01-08T23:13:36.117Z,94.42
2019-01-08T23:16:05.222Z,93.43
2019-01-08T23:18:34.331Z,93.61
2019-01-08T23:21:05.400Z,94.02
2019-01-08T23:23:34.558Z,93.61
2019-01-08T23:26:03.600Z,92.86
2019-01-08T23:28:33.416Z,92.88
2019-01-08T23:31:02.702Z,93.76
2019-01-08T23:33:35.592Z,95.03
2019-01-08T23:36:04.939Z,96.13
2019-01-08T23:38:33.994Z,97.24
2019-01-08T23:41:03.935Z,98.41
2019-01-08T23:43:32.980Z,98.84
2019-01-08T23:46:03.027Z,98.66
2019-01-08T23:48:32.124Z,98.90
2019-01-08T23:51:01.364Z,98.43
2019-01-08T23:53:30.555Z,98.45
2019-01-08T23:55:59.657Z,99.08
2019-01-08T23:58:28.735Z,98.44
